Time;durP1;ratioP1;P1;durP2;ratioP2;P2;SDS_P1;SDS_P2;PMS_P1;PMS_P2;Temp;Humidity;BMP_temperature;BMP_pressure;BME280_temperature;BME280_humidity;BME280_pressure;Samples;Min_cycle;Max_cycle;Signal;HPM_P1;HPM_P2
2022/02/25 00:00:32;;;;;;;0.70;0.70;;;;;;;7.30;67.69;95726.84;5034175;28;20555;-79
2022/02/25 00:02:59;;;;;;;0.57;0.57;;;;;;;7.21;67.94;95730.31;5033002;28;20236;-78
2022/02/25 00:05:26;;;;;;;0.53;0.53;;;;;;;7.04;69.35;95737.09;5034763;28;20237;-79
2022/02/25 00:07:53;;;;;;;0.50;0.50;;;;;;;6.88;69.75;95754.94;5033221;28;20239;-79
2022/02/25 00:10:19;;;;;;;0.57;0.57;;;;;;;6.78;70.33;95754.19;5034693;28;20685;-79
2022/02/25 00:12:47;;;;;;;0.70;0.60;;;;;;;6.85;70.41;95744.97;5032921;28;20275;-79
2022/02/25 00:15:14;;;;;;;1.17;0.60;;;;;;;6.72;71.34;95753.06;5034133;28;20221;-79
2022/02/25 00:17:40;;;;;;;0.60;0.60;;;;;;;6.85;70.04;95761.13;5034123;28;20194;-79
2022/02/25 00:20:08;;;;;;;0.40;0.40;;;;;;;6.80;69.76;95760.78;5033141;28;20206;-78
2022/02/25 00:22:36;;;;;;;1.03;0.60;;;;;;;6.85;69.24;95773.94;5045110;28;20766;-78
2022/02/25 00:25:03;;;;;;;0.50;0.50;;;;;;;6.83;71.00;95775.84;5045306;28;20217;-79
2022/02/25 00:27:30;;;;;;;1.37;0.67;;;;;;;6.88;70.81;95794.13;5046848;28;20587;-78
2022/02/25 00:29:56;;;;;;;0.67;0.67;;;;;;;6.99;69.45;95784.59;5047863;28;20979;-79
2022/02/25 00:32:22;;;;;;;1.57;0.70;;;;;;;7.01;69.52;95795.47;5034154;28;20593;-79
2022/02/25 00:34:49;;;;;;;0.73;0.60;;;;;;;7.06;69.88;95799.19;5039822;28;20589;-78
2022/02/25 00:37:15;;;;;;;1.20;0.80;;;;;;;6.94;70.25;95795.25;5050738;28;20660;-79
2022/02/25 00:39:43;;;;;;;1.03;0.70;;;;;;;6.96;69.81;95779.75;5051304;28;20619;-79
2022/02/25 00:42:10;;;;;;;1.20;0.80;;;;;;;6.84;69.86;95762.09;5051030;28;20197;-78
2022/02/25 00:44:37;;;;;;;0.97;0.80;;;;;;;7.00;69.15;95756.28;5049732;28;20240;-79
2022/02/25 00:47:04;;;;;;;0.53;0.53;;;;;;;7.06;68.96;95765.91;5045368;28;20661;-78
2022/02/25 00:49:31;;;;;;;0.60;0.60;;;;;;;7.07;67.78;95789.78;5034273;28;20209;-79
2022/02/25 00:51:57;;;;;;;1.37;0.70;;;;;;;6.89;68.82;95807.72;5033687;28;20222;-78
2022/02/25 00:54:24;;;;;;;0.70;0.70;;;;;;;6.92;68.11;95807.44;5033044;28;20230;-78
2022/02/25 00:56:52;;;;;;;1.53;0.80;;;;;;;6.93;68.06;95811.56;5034385;28;20194;-79
2022/02/25 00:59:18;;;;;;;0.60;0.60;;;;;;;6.83;68.29;95814.22;5034097;28;20620;-78
2022/02/25 01:01:46;;;;;;;1.07;0.70;;;;;;;6.71;68.75;95796.69;5033625;28;20199;-79
2022/02/25 01:04:13;;;;;;;1.17;0.80;;;;;;;6.82;67.84;95797.25;5033185;28;20248;-79
2022/02/25 01:06:39;;;;;;;0.57;0.57;;;;;;;6.81;68.15;95805.09;5050425;28;20194;-79
2022/02/25 01:09:05;;;;;;;1.37;0.70;;;;;;;6.88;67.18;95809.47;5051289;28;20686;-80
2022/02/25 01:11:32;;;;;;;1.77;0.80;;;;;;;6.84;67.83;95822.69;5048794;28;20710;-78
2022/02/25 01:14:00;;;;;;;0.87;0.70;;;;;;;6.66;68.16;95845.75;5050564;28;20734;-79
2022/02/25 01:16:27;;;;;;;0.73;0.70;;;;;;;6.64;67.94;95844.28;5049658;28;20201;-79
2022/02/25 01:18:53;;;;;;;1.17;0.83;;;;;;;6.65;68.19;95856.91;5051360;28;20205;-79
2022/02/25 01:21:20;;;;;;;1.47;0.70;;;;;;;6.59;69.06;95875.41;5049068;28;20582;-79
2022/02/25 01:23:46;;;;;;;1.13;0.70;;;;;;;6.65;68.29;95876.59;5029782;28;20252;-80
2022/02/25 01:26:12;;;;;;;0.60;0.60;;;;;;;6.56;68.55;95871.38;5036125;28;20245;-78
2022/02/25 01:28:39;;;;;;;1.13;0.73;;;;;;;6.55;67.92;95874.88;5037660;28;20248;-79
2022/02/25 01:31:07;;;;;;;0.97;0.70;;;;;;;6.51;67.99;95888.13;5035978;28;20249;-79
2022/02/25 01:33:33;;;;;;;0.77;0.70;;;;;;;6.49;68.21;95890.81;5048130;28;20336;-79
2022/02/25 01:36:00;;;;;;;1.07;0.80;;;;;;;6.50;67.91;95901.84;5050279;28;20213;-79
2022/02/25 01:38:27;;;;;;;0.97;0.70;;;;;;;6.39;68.62;95905.41;5048823;28;20571;-78
2022/02/25 01:40:54;;;;;;;1.23;0.70;;;;;;;6.41;67.62;95911.19;5049957;28;20205;-79
2022/02/25 01:43:21;;;;;;;0.80;0.80;;;;;;;6.29;68.49;95908.97;5048313;28;20221;-79
2022/02/25 01:45:48;;;;;;;0.60;0.60;;;;;;;6.17;69.00;95910.88;5029564;28;20723;-79
2022/02/25 01:48:16;;;;;;;1.50;0.63;;;;;;;6.18;69.08;95907.38;5034515;28;20236;-79
2022/02/25 01:50:44;;;;;;;1.10;0.80;;;;;;;6.14;68.56;95894.09;5035799;28;20206;-78
2022/02/25 01:53:11;;;;;;;0.73;0.70;;;;;;;5.96;68.69;95900.09;5035577;28;20225;-79
2022/02/25 01:55:39;;;;;;;0.80;0.77;;;;;;;6.00;68.78;95907.31;5038094;28;20210;-79
2022/02/25 01:58:06;;;;;;;0.60;0.60;;;;;;;5.89;68.83;95918.53;5037179;28;20798;-79
2022/02/25 02:00:33;;;;;;;0.70;0.70;;;;;;;5.94;68.77;95930.91;5037407;28;20669;-80
2022/02/25 02:03:00;;;;;;;1.20;0.73;;;;;;;5.97;68.48;95932.34;5036443;28;20225;-79
2022/02/25 02:05:28;;;;;;;0.67;0.67;;;;;;;5.96;68.50;95910.31;5037971;28;20226;-78
2022/02/25 02:07:55;;;;;;;0.83;0.60;;;;;;;5.68;68.11;95915.34;5051026;28;20294;-79
2022/02/25 02:10:21;;;;;;;0.83;0.60;;;;;;;5.59;67.43;95912.78;5049821;28;20797;-79
2022/02/25 02:12:48;;;;;;;0.60;0.60;;;;;;;5.65;67.14;95907.94;5039628;28;20218;-78
2022/02/25 02:15:14;;;;;;;0.60;0.60;;;;;;;5.64;66.06;95919.09;5036298;28;20229;-79
2022/02/25 02:17:41;;;;;;;0.50;0.50;;;;;;;5.65;65.67;95930.13;5048834;28;20201;-78
2022/02/25 02:20:08;;;;;;;1.63;0.80;;;;;;;5.71;65.78;95927.03;5050358;28;20224;-79
2022/02/25 02:22:36;;;;;;;1.63;0.80;;;;;;;5.63;66.51;95945.59;5048432;28;20253;-79
2022/02/25 02:25:03;;;;;;;0.67;0.60;;;;;;;5.65;66.65;95948.00;5050894;28;20757;-79
2022/02/25 02:30:12;;;;;;;0.60;0.60;;;;;;;5.63;67.48;95953.25;5049492;28;20236;-79
2022/02/25 02:32:39;;;;;;;0.60;0.60;;;;;;;5.63;66.96;95952.44;5035633;28;20718;-79
2022/02/25 02:35:06;;;;;;;0.63;0.60;;;;;;;5.65;67.85;95956.47;5036321;28;20218;-79
2022/02/25 02:37:33;;;;;;;0.67;0.60;;;;;;;5.41;67.91;95974.78;5037111;28;20202;-79
2022/02/25 02:40:01;;;;;;;0.60;0.60;;;;;;;5.39;67.96;95958.78;5043211;28;20205;-78
2022/02/25 02:42:27;;;;;;;1.40;0.50;;;;;;;5.17;67.73;95962.44;5036187;28;20300;-79
2022/02/25 02:44:53;;;;;;;0.67;0.67;;;;;;;5.26;68.58;95977.88;5035706;28;20210;-79
2022/02/25 02:47:20;;;;;;;1.00;0.77;;;;;;;5.41;67.83;95971.41;5036001;28;20202;-79
2022/02/25 02:49:46;;;;;;;2.63;0.80;;;;;;;5.45;67.36;95972.75;5036069;28;20194;-78
2022/02/25 02:52:13;;;;;;;0.63;0.60;;;;;;;5.32;67.78;95979.88;5035326;28;20640;-79
2022/02/25 02:54:39;;;;;;;1.00;0.70;;;;;;;5.30;67.99;95969.81;5036784;28;20218;-79
2022/02/25 02:57:07;;;;;;;1.00;0.70;;;;;;;5.48;67.32;95968.19;5035866;28;20201;-78
2022/02/25 02:59:34;;;;;;;1.23;0.70;;;;;;;5.39;67.38;95975.84;5036069;28;20793;-78
2022/02/25 03:02:00;;;;;;;0.70;0.60;;;;;;;5.39;66.83;95969.00;5034799;28;20212;-79
2022/02/25 03:04:27;;;;;;;1.30;0.80;;;;;;;5.32;67.34;95970.47;5035613;28;20236;-77
2022/02/25 03:06:53;;;;;;;0.60;0.60;;;;;;;5.46;66.90;95980.28;5035593;28;20285;-78
2022/02/25 03:09:20;;;;;;;0.50;0.50;;;;;;;5.35;67.22;95970.22;5035582;28;20202;-79
2022/02/25 03:11:49;;;;;;;0.50;0.50;;;;;;;5.28;66.81;95976.78;5035516;28;20629;-79
2022/02/25 03:14:17;;;;;;;1.27;0.60;;;;;;;5.46;66.62;95982.03;5034504;28;20230;-78
2022/02/25 03:16:43;;;;;;;1.17;0.60;;;;;;;5.51;66.06;95990.09;5048233;28;20653;-79
2022/02/25 03:19:09;;;;;;;1.00;0.70;;;;;;;5.45;65.73;95990.63;5049636;28;20240;-79
2022/02/25 03:21:36;;;;;;;1.70;0.60;;;;;;;5.44;65.54;95987.28;5036965;28;20202;-78
2022/02/25 03:24:02;;;;;;;1.00;0.80;;;;;;;5.51;65.68;95997.75;5032583;28;20240;-79
2022/02/25 03:26:29;;;;;;;1.60;0.70;;;;;;;5.52;65.36;95984.84;5039437;28;20201;-79
2022/02/25 03:28:55;;;;;;;1.23;0.60;;;;;;;5.48;65.03;95998.03;5049165;28;20640;-78
2022/02/25 03:31:23;;;;;;;0.87;0.70;;;;;;;5.51;64.60;96006.22;5048322;28;20197;-78
2022/02/25 03:33:50;;;;;;;0.77;0.60;;;;;;;5.62;64.45;95996.81;5048154;28;20603;-79
2022/02/25 03:36:16;;;;;;;0.50;0.50;;;;;;;5.59;64.20;95997.88;5049327;28;20271;-79
2022/02/25 03:38:43;;;;;;;0.50;0.50;;;;;;;5.68;64.18;96007.28;5036413;28;20693;-79
2022/02/25 03:41:10;;;;;;;0.73;0.70;;;;;;;5.74;63.81;96014.41;5048710;28;20197;-79
2022/02/25 03:43:37;;;;;;;0.60;0.60;;;;;;;5.68;64.44;96016.69;5046822;28;20312;-78
2022/02/25 03:46:03;;;;;;;1.40;0.77;;;;;;;5.65;63.92;96016.97;5048546;28;20217;-79
2022/02/25 03:48:31;;;;;;;1.17;0.77;;;;;;;5.53;64.03;96034.19;5035620;28;20190;-78
2022/02/25 03:50:57;;;;;;;2.20;0.90;;;;;;;5.53;64.10;96024.78;5034122;28;20259;-79
2022/02/25 03:53:24;;;;;;;1.40;0.60;;;;;;;5.49;63.79;96025.97;5034127;28;20291;-78
2022/02/25 03:55:50;;;;;;;1.03;0.70;;;;;;;5.53;64.18;96031.63;5034580;28;20217;-79
2022/02/25 03:58:17;;;;;;;1.33;0.73;;;;;;;5.51;63.68;96038.63;5034314;28;20202;-79
2022/02/25 04:00:43;;;;;;;0.60;0.60;;;;;;;5.56;63.52;96039.03;5034442;28;20198;-79
2022/02/25 04:03:10;;;;;;;0.70;0.60;;;;;;;5.67;63.46;96043.19;5033452;28;20222;-78
2022/02/25 04:05:37;;;;;;;0.70;0.70;;;;;;;5.73;63.13;96040.09;5034779;28;20214;-78
2022/02/25 04:08:04;;;;;;;0.60;0.60;;;;;;;5.69;62.95;96046.41;5034000;28;20198;-79
2022/02/25 04:10:33;;;;;;;0.67;0.67;;;;;;;5.70;62.78;96045.47;5033670;28;20194;-78
2022/02/25 04:12:59;;;;;;;1.20;0.70;;;;;;;5.66;62.70;96042.38;5033760;28;20241;-78
2022/02/25 04:15:26;;;;;;;0.73;0.60;;;;;;;5.70;62.66;96051.41;5034553;28;20210;-79
2022/02/25 04:17:52;;;;;;;2.40;0.83;;;;;;;5.73;62.94;96052.88;5032070;28;20201;-79
2022/02/25 04:20:18;;;;;;;0.63;0.60;;;;;;;5.77;62.39;96055.00;5030775;28;20209;-78
2022/02/25 04:22:46;;;;;;;1.17;0.70;;;;;;;5.66;62.14;96054.34;5030582;28;20218;-79
2022/02/25 04:25:14;;;;;;;2.70;0.70;;;;;;;5.71;62.21;96058.13;5031283;28;20230;-79
2022/02/25 04:27:41;;;;;;;0.60;0.60;;;;;;;5.78;62.14;96053.25;5030891;28;20252;-78
2022/02/25 04:30:08;;;;;;;0.60;0.60;;;;;;;5.79;62.30;96059.97;5030720;28;20194;-78
2022/02/25 04:32:35;;;;;;;2.30;0.63;;;;;;;5.72;62.28;96062.28;5030181;28;20302;-78
2022/02/25 04:35:01;;;;;;;0.70;0.70;;;;;;;5.69;62.18;96070.22;5033744;28;20241;-79
2022/02/25 04:37:28;;;;;;;0.97;0.63;;;;;;;5.56;62.12;96062.03;5034354;28;20225;-79
2022/02/25 04:39:56;;;;;;;1.40;0.80;;;;;;;5.60;61.87;96067.66;5033509;28;20268;-79
2022/02/25 04:42:22;;;;;;;1.57;0.77;;;;;;;5.66;61.96;96070.47;5046959;28;20201;-79
2022/02/25 04:44:48;;;;;;;0.80;0.70;;;;;;;5.70;61.79;96073.56;5045237;28;20230;-78
2022/02/25 04:47:15;;;;;;;0.80;0.80;;;;;;;5.73;61.62;96078.44;5041048;28;20198;-79
2022/02/25 04:49:41;;;;;;;0.97;0.70;;;;;;;5.55;61.02;96073.97;5035139;28;20207;-79
2022/02/25 04:52:09;;;;;;;1.30;0.67;;;;;;;5.57;61.67;96084.06;5033556;28;20678;-78
2022/02/25 04:54:35;;;;;;;1.77;0.80;;;;;;;5.65;62.10;96079.09;5034447;28;20675;-78
2022/02/25 04:57:03;;;;;;;1.23;0.70;;;;;;;5.74;61.42;96083.41;5033972;28;20202;-79
2022/02/25 04:59:30;;;;;;;1.53;0.70;;;;;;;5.66;61.30;96080.69;5037474;28;20202;-81
2022/02/25 05:01:56;;;;;;;1.17;0.70;;;;;;;5.70;61.09;96078.69;5033327;28;20217;-78
2022/02/25 05:04:23;;;;;;;1.13;0.70;;;;;;;5.71;61.01;96078.56;5038072;28;20233;-79
2022/02/25 05:06:49;;;;;;;0.90;0.80;;;;;;;5.61;60.60;96084.59;5034690;28;20193;-79
2022/02/25 05:09:16;;;;;;;0.87;0.70;;;;;;;5.68;60.88;96083.94;5034124;28;20206;-78
2022/02/25 05:11:42;;;;;;;0.53;0.53;;;;;;;5.65;61.03;96098.72;5034120;28;20201;-78
2022/02/25 05:20:15;;;;;;;0.83;0.70;;;;;;;5.44;61.60;96098.81;5041970;28;20221;-79
2022/02/25 05:22:25;;;;;;;1.10;0.90;;;;;;;5.58;61.80;96118.84;5047525;28;20208;-78
2022/02/25 05:24:51;;;;;;;1.90;0.80;;;;;;;5.61;61.14;96121.16;5052100;28;20229;-79
2022/02/25 05:27:19;;;;;;;2.20;1.00;;;;;;;5.54;61.11;96126.00;5051358;28;20328;-79
2022/02/25 05:29:47;;;;;;;1.43;0.87;;;;;;;5.56;61.16;96130.97;5048747;28;20221;-79
2022/02/25 05:32:14;;;;;;;1.10;0.90;;;;;;;5.54;61.39;96136.22;5038089;28;20234;-78
2022/02/25 05:34:40;;;;;;;1.17;0.80;;;;;;;5.56;61.36;96143.75;5037961;28;20217;-78
2022/02/25 05:37:07;;;;;;;0.77;0.73;;;;;;;5.51;61.48;96136.47;5036528;28;20245;-79
2022/02/25 05:39:33;;;;;;;0.83;0.70;;;;;;;5.51;61.10;96146.69;5037275;28;20202;-80
2022/02/25 05:42:00;;;;;;;0.80;0.80;;;;;;;5.61;61.05;96149.25;5036207;28;20202;-79
2022/02/25 05:44:26;;;;;;;0.70;0.70;;;;;;;5.52;62.12;96150.06;5025081;28;20321;-78
2022/02/25 05:46:54;;;;;;;1.20;0.90;;;;;;;5.62;61.48;96165.38;5032592;28;20214;-79
2022/02/25 05:49:21;;;;;;;1.93;1.20;;;;;;;5.60;61.22;96157.84;5030338;28;20217;-78
2022/02/25 05:51:47;;;;;;;1.30;0.97;;;;;;;5.66;60.96;96157.34;5030018;28;20206;-77
2022/02/25 05:54:14;;;;;;;0.73;0.73;;;;;;;5.65;60.48;96165.94;5029320;28;20226;-79
2022/02/25 05:56:40;;;;;;;1.43;0.80;;;;;;;5.69;60.72;96166.47;5032903;28;20194;-79
2022/02/25 05:59:06;;;;;;;1.10;1.00;;;;;;;5.71;60.36;96173.06;5032691;28;20205;-79
2022/02/25 06:01:33;;;;;;;1.40;0.70;;;;;;;5.64;61.65;96178.84;5033354;28;20206;-79
2022/02/25 06:04:01;;;;;;;1.27;0.80;;;;;;;5.75;60.54;96173.63;5032950;28;20233;-78
2022/02/25 06:06:28;;;;;;;1.53;0.80;;;;;;;5.74;60.46;96184.78;5030754;28;20288;-79
2022/02/25 06:08:54;;;;;;;1.50;0.90;;;;;;;5.81;60.17;96188.41;5033304;28;20232;-79
2022/02/25 06:11:20;;;;;;;1.60;1.10;;;;;;;5.81;60.19;96199.44;5032936;28;20214;-79
2022/02/25 06:13:47;;;;;;;0.97;0.80;;;;;;;5.83;59.66;96196.75;5032668;28;20237;-79
2022/02/25 06:16:13;;;;;;;3.00;1.00;;;;;;;5.79;59.69;96198.75;5032848;28;20627;-79
2022/02/25 06:18:42;;;;;;;1.03;0.83;;;;;;;5.74;59.66;96213.69;5033776;28;20615;-78
2022/02/25 06:21:09;;;;;;;1.63;1.27;;;;;;;5.71;60.01;96218.25;5028831;28;20209;-78
2022/02/25 06:23:36;;;;;;;1.10;0.90;;;;;;;5.73;59.58;96216.38;5045876;28;20228;-79
2022/02/25 06:26:06;;;;;;;1.53;0.90;;;;;;;5.69;59.75;96215.81;5033950;28;20275;-79
2022/02/25 06:28:32;;;;;;;1.50;0.90;;;;;;;5.68;59.03;96214.22;5034673;28;20256;-79
2022/02/25 06:30:59;;;;;;;1.97;0.80;;;;;;;5.69;59.40;96215.03;5034101;28;20225;-78
2022/02/25 06:33:25;;;;;;;1.27;0.80;;;;;;;5.73;59.00;96222.31;5032862;28;20229;-79
2022/02/25 06:35:52;;;;;;;0.97;0.90;;;;;;;5.65;59.10;96224.69;5034186;28;20222;-78
2022/02/25 06:38:19;;;;;;;1.10;0.70;;;;;;;5.64;59.06;96223.06;5033479;28;20205;-78
2022/02/25 06:40:46;;;;;;;1.30;0.90;;;;;;;5.53;59.05;96233.41;5033233;28;20205;-78
2022/02/25 06:43:12;;;;;;;1.63;1.03;;;;;;;5.61;59.11;96225.06;5033241;28;20241;-79
2022/02/25 06:45:39;;;;;;;1.50;0.90;;;;;;;5.67;59.13;96240.69;5033609;28;20729;-78
2022/02/25 06:48:05;;;;;;;4.30;1.17;;;;;;;5.67;58.89;96245.81;5033768;28;20202;-78
2022/02/25 06:50:32;;;;;;;1.40;0.97;;;;;;;5.71;58.97;96251.47;5032718;28;20210;-79
2022/02/25 06:52:58;;;;;;;1.17;1.00;;;;;;;5.80;58.79;96253.22;5032788;28;20232;-79
2022/02/25 06:55:26;;;;;;;3.00;1.30;;;;;;;5.79;58.79;96254.97;5032918;28;20276;-78
2022/02/25 06:57:53;;;;;;;1.20;1.00;;;;;;;5.83;58.39;96252.97;5033312;28;20205;-78
2022/02/25 07:00:21;;;;;;;4.00;2.80;;;;;;;5.86;58.29;96258.63;5033326;28;20205;-79
2022/02/25 07:02:48;;;;;;;4.40;2.93;;;;;;;5.81;58.34;96268.44;5032498;28;20233;-78
2022/02/25 07:05:15;;;;;;;5.47;2.50;;;;;;;5.78;58.96;96267.88;5032836;28;20604;-79
2022/02/25 07:07:41;;;;;;;3.47;1.20;;;;;;;5.80;58.66;96268.56;5032895;28;20202;-79
2022/02/25 07:10:09;;;;;;;2.53;1.03;;;;;;;5.80;58.66;96260.88;5033049;28;20194;-79
2022/02/25 07:12:36;;;;;;;0.80;0.80;;;;;;;5.73;58.78;96272.59;5032245;28;20260;-79
2022/02/25 07:15:04;;;;;;;2.10;1.13;;;;;;;5.71;59.05;96269.34;5032096;28;20222;-79
2022/02/25 07:17:31;;;;;;;1.93;1.20;;;;;;;5.58;58.67;96272.09;5033232;28;20214;-79
2022/02/25 07:19:57;;;;;;;2.77;1.37;;;;;;;5.67;58.45;96279.00;5032350;28;20333;-78
2022/02/25 07:22:24;;;;;;;1.40;1.07;;;;;;;5.65;58.55;96280.88;5032447;28;20772;-78
2022/02/25 07:24:50;;;;;;;2.73;1.07;;;;;;;5.66;58.55;96279.94;5032808;28;20638;-79
2022/02/25 07:27:16;;;;;;;4.20;1.20;;;;;;;5.64;58.76;96288.69;5033082;28;20210;-79
2022/02/25 07:29:44;;;;;;;1.10;1.00;;;;;;;5.62;58.93;96296.47;5032574;28;20202;-79
2022/02/25 07:32:11;;;;;;;2.47;1.20;;;;;;;5.66;58.48;96289.34;5032536;28;20202;-79
2022/02/25 07:34:39;;;;;;;3.90;1.20;;;;;;;5.70;58.16;96288.97;5040429;28;20721;-78
2022/02/25 07:37:05;;;;;;;1.73;1.00;;;;;;;5.70;57.68;96300.94;5035511;28;20229;-79
2022/02/25 07:39:32;;;;;;;1.57;1.00;;;;;;;5.67;57.71;96301.19;5032396;28;20202;-78
2022/02/25 07:41:59;;;;;;;3.67;0.97;;;;;;;5.67;57.92;96304.56;5031567;28;20202;-78
2022/02/25 07:44:26;;;;;;;2.97;1.30;;;;;;;6.26;56.57;96314.06;5025838;28;20232;-78
2022/02/25 07:46:54;;;;;;;3.70;1.47;;;;;;;6.78;54.30;96310.31;5029797;28;20293;-77
2022/02/25 07:49:21;;;;;;;2.10;1.10;;;;;;;7.44;53.49;96302.69;5029158;28;20248;-79
2022/02/25 07:51:50;;;;;;;2.40;1.03;;;;;;;7.92;51.63;96301.69;5030902;28;20214;-79
2022/02/25 07:54:16;;;;;;;2.90;1.13;;;;;;;8.62;51.21;96306.16;5030300;28;20237;-79
2022/02/25 07:56:43;;;;;;;2.33;1.30;;;;;;;8.64;49.89;96308.59;5031164;28;20672;-78
2022/02/25 07:59:09;;;;;;;4.33;1.07;;;;;;;8.79;48.98;96312.25;5031755;28;20272;-79
2022/02/25 08:01:36;;;;;;;2.10;1.10;;;;;;;8.75;48.87;96307.53;5031266;28;20198;-77
2022/02/25 08:04:04;;;;;;;1.47;1.10;;;;;;;8.96;47.82;96308.03;5030350;28;20256;-79
2022/02/25 08:06:31;;;;;;;2.27;1.00;;;;;;;9.12;47.18;96312.50;5031283;28;20228;-79
2022/02/25 08:08:57;;;;;;;1.47;1.00;;;;;;;9.38;46.46;96315.09;5031109;28;20692;-79
2022/02/25 08:11:24;;;;;;;1.90;1.00;;;;;;;9.85;46.45;96310.38;5030888;28;20260;-79
2022/02/25 08:13:50;;;;;;;2.57;1.10;;;;;;;9.99;45.39;96313.19;5030814;28;20233;-78
2022/02/25 08:16:16;;;;;;;1.47;0.90;;;;;;;10.11;44.45;96311.13;5031496;28;20226;-79
2022/02/25 08:18:43;;;;;;;3.33;1.20;;;;;;;10.47;44.67;96309.16;5031388;28;20225;-80
2022/02/25 08:21:11;;;;;;;2.53;1.23;;;;;;;10.74;43.18;96313.25;5030461;28;20202;-79
2022/02/25 08:23:38;;;;;;;2.67;1.03;;;;;;;10.96;43.11;96316.97;5030933;28;20237;-80
2022/02/25 08:26:04;;;;;;;5.00;1.63;;;;;;;11.08;43.10;96313.91;5031439;28;20320;-79
2022/02/25 08:28:31;;;;;;;7.87;4.53;;;;;;;11.24;42.27;96304.53;5031635;28;20206;-79
2022/02/25 08:30:57;;;;;;;5.33;1.57;;;;;;;11.43;41.01;96304.19;5031341;28;20700;-78
2022/02/25 08:33:24;;;;;;;2.97;1.20;;;;;;;11.71;41.04;96299.47;5027356;28;20230;-79
2022/02/25 08:35:50;;;;;;;2.00;1.10;;;;;;;11.52;39.81;96305.81;5026215;28;20230;-78
2022/02/25 08:38:18;;;;;;;4.13;1.10;;;;;;;11.54;39.03;96305.63;5031359;28;20206;-82
2022/02/25 08:40:46;;;;;;;5.33;1.23;;;;;;;11.22;40.51;96304.69;5033430;28;20205;-82
2022/02/25 08:43:13;;;;;;;2.23;1.40;;;;;;;11.34;40.51;96305.19;5048359;28;20256;-82
2022/02/25 08:45:41;;;;;;;3.27;1.30;;;;;;;11.49;40.51;96306.13;5051699;28;20221;-82
2022/02/25 08:48:08;;;;;;;3.00;1.20;;;;;;;11.23;39.04;96305.50;5027325;28;20213;-82
2022/02/25 08:50:35;;;;;;;3.60;1.17;;;;;;;11.23;39.15;96305.50;5014005;28;20214;-83
2022/02/25 08:53:02;;;;;;;1.63;1.10;;;;;;;11.38;39.81;96309.84;5011412;28;20313;-82
2022/02/25 08:55:29;;;;;;;3.07;1.50;;;;;;;11.16;38.54;96302.75;5032316;28;20630;-83
2022/02/25 08:57:56;;;;;;;3.50;1.20;;;;;;;11.09;38.81;96306.97;5035453;28;20214;-82
2022/02/25 09:00:24;;;;;;;2.67;1.10;;;;;;;11.17;38.15;96295.84;5037408;28;20204;-82
2022/02/25 09:02:52;;;;;;;4.40;1.37;;;;;;;11.00;38.13;96305.34;5041122;28;20229;-82
2022/02/25 09:05:21;;;;;;;4.40;1.70;;;;;;;10.96;38.04;96309.25;5037876;28;20214;-82
2022/02/25 09:07:49;;;;;;;1.80;1.07;;;;;;;10.82;38.42;96307.28;5038177;28;20209;-83
2022/02/25 09:10:16;;;;;;;2.90;1.23;;;;;;;10.76;38.57;96293.28;5030408;28;20205;-82
2022/02/25 09:12:45;;;;;;;4.23;1.20;;;;;;;11.20;38.21;96293.75;5036631;28;20249;-82
2022/02/25 09:15:15;;;;;;;3.60;1.33;;;;;;;11.46;38.15;96290.16;5037710;28;20234;-83
2022/02/25 09:17:41;;;;;;;3.77;1.20;;;;;;;11.76;37.28;96295.44;5037733;28;20208;-82
2022/02/25 09:20:10;;;;;;;2.63;1.40;;;;;;;11.89;36.91;96299.28;5047693;28;20201;-82
2022/02/25 09:22:37;;;;;;;2.27;1.30;;;;;;;11.85;36.24;96287.69;5050489;28;20304;-82
2022/02/25 09:25:05;;;;;;;4.67;1.23;;;;;;;11.46;36.40;96290.97;5037168;28;20209;-82
2022/02/25 09:27:32;;;;;;;2.97;1.20;;;;;;;11.26;34.97;96308.56;5036027;28;20213;-82
2022/02/25 09:30:00;;;;;;;2.13;1.00;;;;;;;11.27;35.72;96301.63;5036854;28;20930;-82
2022/02/25 09:32:27;;;;;;;3.00;1.13;;;;;;;11.43;35.11;96310.16;5036160;28;20232;-82
2022/02/25 09:34:53;;;;;;;2.00;1.20;;;;;;;11.18;34.69;96307.75;5036602;28;20264;-83
2022/02/25 09:37:20;;;;;;;2.13;1.00;;;;;;;11.08;34.92;96307.94;5048967;28;20269;-81
2022/02/25 09:39:49;;;;;;;2.33;1.50;;;;;;;11.22;34.15;96303.88;5035302;28;20244;-83
2022/02/25 09:42:15;;;;;;;2.53;0.90;;;;;;;11.19;33.95;96306.78;5034077;28;20206;-82
2022/02/25 09:44:42;;;;;;;1.93;0.87;;;;;;;11.10;33.73;96318.09;5033385;28;20264;-83
2022/02/25 09:47:10;;;;;;;5.07;1.37;;;;;;;10.86;34.67;96306.00;5033808;28;20209;-80
2022/02/25 09:49:36;;;;;;;1.67;1.10;;;;;;;10.73;34.37;96306.47;5026714;28;20198;-80
2022/02/25 09:52:03;;;;;;;3.13;1.50;;;;;;;10.54;34.74;96299.84;5033692;28;20209;-80
2022/02/25 09:54:29;;;;;;;3.00;1.20;;;;;;;10.54;35.02;96307.56;5033341;28;20229;-81
2022/02/25 09:56:56;;;;;;;2.87;1.30;;;;;;;10.71;35.39;96300.69;5034392;28;20237;-82
2022/02/25 09:59:23;;;;;;;7.93;4.23;;;;;;;11.02;34.99;96303.41;5034292;28;20587;-82
2022/02/25 10:01:49;;;;;;;3.17;1.50;;;;;;;10.87;34.72;96302.47;5034541;28;20241;-80
2022/02/25 10:04:20;;;;;;;2.80;1.30;;;;;;;10.99;34.15;96301.16;5033178;28;20233;-80
2022/02/25 10:06:47;;;;;;;2.47;1.00;;;;;;;11.26;33.19;96305.19;5034123;28;20236;-80
2022/02/25 10:09:26;;;;;;;2.60;1.10;;;;;;;11.15;32.48;96305.53;5032053;28;20194;-79
2022/02/25 10:12:01;;;;;;;3.00;1.10;;;;;;;11.25;31.99;96306.16;5033280;28;20611;-80
2022/02/25 10:14:31;;;;;;;2.27;1.00;;;;;;;10.86;32.68;96300.84;5034128;28;20308;-80
2022/02/25 10:17:13;;;;;;;3.30;1.00;;;;;;;10.78;32.70;96306.78;5044444;28;20577;-80
2022/02/25 10:19:42;;;;;;;1.87;1.00;;;;;;;10.12;32.85;96310.16;5032666;28;20194;-79
2022/02/25 10:22:18;;;;;;;2.37;1.40;;;;;;;9.74;34.72;96315.78;5032724;28;20907;-80
2022/02/25 10:24:46;;;;;;;2.33;0.97;;;;;;;9.67;35.42;96323.28;5033072;28;20276;-79
2022/02/25 10:27:21;;;;;;;2.57;1.03;;;;;;;9.40;35.24;96323.47;5032908;28;20198;-79
2022/02/25 10:29:56;;;;;;;3.43;1.13;;;;;;;9.10;36.05;96319.53;5037524;28;20197;-80
2022/02/25 10:32:32;;;;;;;2.17;1.00;;;;;;;9.35;36.28;96329.06;5041706;28;20197;-79
2022/02/25 10:35:01;;;;;;;2.50;1.00;;;;;;;8.91;35.27;96321.31;5047698;28;20248;-79
2022/02/25 10:37:28;;;;;;;1.63;0.90;;;;;;;8.72;35.32;96328.38;5036932;28;20226;-80
2022/02/25 10:39:55;;;;;;;1.23;1.00;;;;;;;8.28;36.07;96328.22;5036919;28;20201;-79
2022/02/25 10:42:23;;;;;;;2.37;1.13;;;;;;;8.18;36.37;96324.91;5029433;28;20194;-79
2022/02/25 10:44:55;;;;;;;2.63;1.07;;;;;;;8.19;36.77;96322.19;5036920;28;20246;-80
2022/02/25 10:47:23;;;;;;;1.60;1.13;;;;;;;8.19;36.88;96316.25;5029170;28;20205;-80
2022/02/25 10:49:58;;;;;;;2.03;1.13;;;;;;;8.10;36.93;96317.91;5041217;28;20193;-79
2022/02/25 10:52:28;;;;;;;6.53;1.60;;;;;;;8.19;36.87;96309.38;5033416;28;20593;-80
2022/02/25 10:54:55;;;;;;;2.03;1.13;;;;;;;8.39;36.59;96307.53;5036026;28;20226;-80
2022/02/25 10:57:22;;;;;;;2.23;1.00;;;;;;;9.05;36.72;96316.59;5035060;28;20208;-79
2022/02/25 10:59:50;;;;;;;4.20;1.10;;;;;;;9.06;35.82;96323.34;5047675;28;20197;-79
2022/02/25 11:02:31;;;;;;;1.93;1.00;;;;;;;9.11;34.98;96295.47;5047520;28;20214;-79
2022/02/25 11:05:12;;;;;;;2.67;1.03;;;;;;;9.13;34.91;96311.53;5047671;28;20216;-79
2022/02/25 11:07:41;;;;;;;3.30;1.00;;;;;;;9.65;35.24;96300.31;5048798;28;20280;-79
2022/02/25 11:10:11;;;;;;;4.17;1.00;;;;;;;9.86;35.07;96292.19;5046283;28;20220;-79
2022/02/25 11:12:39;;;;;;;2.87;1.13;;;;;;;9.86;35.63;96301.69;5048435;28;20225;-80
2022/02/25 11:15:08;;;;;;;1.37;1.00;;;;;;;9.65;34.95;96300.31;5043304;28;20221;-80
2022/02/25 11:17:36;;;;;;;1.57;1.03;;;;;;;9.37;35.17;96298.06;5031165;28;20199;-80
2022/02/25 11:20:06;;;;;;;1.37;1.00;;;;;;;8.99;36.57;96294.91;5035915;28;20213;-80
2022/02/25 11:22:34;;;;;;;3.07;1.03;;;;;;;8.89;36.53;96296.75;5037229;28;20202;-80
2022/02/25 11:25:02;;;;;;;3.17;1.57;;;;;;;8.58;36.22;96297.13;5036556;28;20214;-80
2022/02/25 11:27:28;;;;;;;5.30;3.00;;;;;;;8.35;37.23;96290.81;5044080;28;20660;-82
2022/02/25 11:30:02;;;;;;;3.37;1.30;;;;;;;8.35;37.60;96285.69;5048465;28;20189;-82
2022/02/25 11:32:34;;;;;;;2.47;1.20;;;;;;;8.39;38.06;96281.88;5031423;28;20194;-80
2022/02/25 11:35:11;;;;;;;1.77;0.90;;;;;;;8.27;36.73;96283.00;5032241;28;20280;-83
2022/02/25 11:37:42;;;;;;;2.97;1.10;;;;;;;8.15;36.79;96286.72;5032930;28;20197;-82
2022/02/25 11:40:11;;;;;;;2.40;1.30;;;;;;;8.24;36.57;96283.28;5033138;28;20238;-82
2022/02/25 11:42:38;;;;;;;1.57;1.07;;;;;;;8.14;36.98;96292.78;5033448;28;20232;-82
2022/02/25 11:45:18;;;;;;;1.83;1.13;;;;;;;7.94;37.00;96284.41;5030130;28;20253;-82
2022/02/25 11:47:51;;;;;;;0.70;0.70;;;;;;;7.74;37.43;96290.56;5032825;28;20257;-82
2022/02/25 11:50:37;;;;;;;1.80;1.00;;;;;;;7.71;38.00;96293.41;5032859;28;20206;-82